createdAt,value
2017-09-14T00:00:26.717Z,98.1
2017-09-14T00:01:28.421Z,98.1
2017-09-14T00:02:30.611Z,98.3
2017-09-14T00:03:32.258Z,98.9
2017-09-14T00:04:34.000Z,99.3
2017-09-14T00:05:35.776Z,98.4
2017-09-14T00:06:37.579Z,97.9
2017-09-14T00:07:39.310Z,98.0
2017-09-14T00:08:41.008Z,98.0
2017-09-14T00:09:42.789Z,97.3
2017-09-14T00:10:44.648Z,98.5
2017-09-14T00:11:46.358Z,97.2
2017-09-14T00:12:48.094Z,96.7
2017-09-14T00:13:49.818Z,96.7
2017-09-14T00:14:51.535Z,96.8
2017-09-14T00:15:53.287Z,96.9
2017-09-14T00:16:54.994Z,96.6
2017-09-14T00:17:56.761Z,95.9
2017-09-14T00:18:58.429Z,96.2
2017-09-14T00:20:00.158Z,95.9
2017-09-14T00:21:01.825Z,95.1
2017-09-14T00:22:03.593Z,95.0
2017-09-14T00:23:05.311Z,94.9
2017-09-14T00:24:07.050Z,96.2
2017-09-14T00:25:08.796Z,95.9
2017-09-14T00:26:10.530Z,96.2
2017-09-14T00:27:12.219Z,96.5
2017-09-14T00:28:13.947Z,96.1
2017-09-14T00:29:15.829Z,95.9
2017-09-14T00:30:17.612Z,95.6
2017-09-14T00:31:19.317Z,95.9
2017-09-14T00:32:21.056Z,96.8
2017-09-14T00:33:22.820Z,96.1
2017-09-14T00:34:24.534Z,95.7
2017-09-14T00:35:26.323Z,96.2
2017-09-14T00:36:28.036Z,95.2
2017-09-14T00:37:29.795Z,95.3
2017-09-14T00:38:31.512Z,95.2
2017-09-14T00:39:33.627Z,95.6
2017-09-14T00:40:35.314Z,96.3
2017-09-14T00:41:37.007Z,96.2
2017-09-14T00:42:38.738Z,95.4
2017-09-14T00:43:40.458Z,95.0
2017-09-14T00:44:42.194Z,96.1
2017-09-14T00:45:43.904Z,96.1
2017-09-14T00:46:45.646Z,96.1
2017-09-14T00:47:47.450Z,95.8
2017-09-14T00:48:49.175Z,95.4
2017-09-14T00:49:50.880Z,95.0
2017-09-14T00:50:52.999Z,95.7
2017-09-14T00:51:54.699Z,95.2
2017-09-14T00:52:56.555Z,95.3
2017-09-14T00:53:58.321Z,95.4
2017-09-14T00:55:00.060Z,94.8
2017-09-14T00:56:01.735Z,95.2
2017-09-14T00:57:03.713Z,95.3
2017-09-14T00:58:05.450Z,95.0
2017-09-14T00:59:07.191Z,95.3
2017-09-14T01:00:08.916Z,95.9
2017-09-14T01:01:10.593Z,96.6
2017-09-14T01:02:12.678Z,96.2
2017-09-14T01:03:14.737Z,95.6
2017-09-14T01:04:16.516Z,96.2
2017-09-14T01:05:18.217Z,95.6
2017-09-14T01:06:20.118Z,95.1
2017-09-14T01:07:21.878Z,96.6
2017-09-14T01:08:23.608Z,95.9
2017-09-14T01:09:25.354Z,95.5
2017-09-14T01:10:27.048Z,96.1
2017-09-14T01:11:28.802Z,96.2
2017-09-14T01:12:30.570Z,96.3
2017-09-14T01:13:32.290Z,96.1
2017-09-14T01:14:34.336Z,96.0
2017-09-14T01:15:36.097Z,96.4
2017-09-14T01:16:37.809Z,96.0
2017-09-14T01:17:39.594Z,96.6
2017-09-14T01:18:41.301Z,95.3
2017-09-14T01:19:43.003Z,95.9
2017-09-14T01:20:44.736Z,96.6
2017-09-14T01:21:47.024Z,96.3
2017-09-14T01:22:48.795Z,96.3
2017-09-14T01:23:50.506Z,95.7
2017-09-14T01:24:52.205Z,95.5
2017-09-14T01:25:53.934Z,96.2
2017-09-14T01:26:55.650Z,96.2
2017-09-14T01:27:57.398Z,96.1
2017-09-14T01:28:59.121Z,95.4
2017-09-14T01:30:01.567Z,96.0
2017-09-14T01:31:03.362Z,94.9
2017-09-14T01:32:05.067Z,95.3
2017-09-14T01:33:06.807Z,95.3
2017-09-14T01:34:08.559Z,95.4
2017-09-14T01:35:10.255Z,95.9
2017-09-14T01:36:12.011Z,95.9
2017-09-14T01:37:13.698Z,95.3
2017-09-14T01:38:15.448Z,95.4
2017-09-14T01:39:17.145Z,95.2
2017-09-14T01:40:18.819Z,95.2
2017-09-14T01:41:21.416Z,95.4
2017-09-14T01:42:23.144Z,95.4
2017-09-14T01:43:24.839Z,95.3
2017-09-14T01:44:26.556Z,95.3
2017-09-14T01:45:28.325Z,95.0
2017-09-14T01:46:30.039Z,96.1
2017-09-14T01:47:32.108Z,95.7
2017-09-14T01:48:33.785Z,95.1
2017-09-14T01:49:35.504Z,95.9
2017-09-14T01:50:37.280Z,95.2
2017-09-14T01:51:39.002Z,95.1
2017-09-14T01:52:40.730Z,96.0
2017-09-14T01:53:42.444Z,96.4
2017-09-14T01:54:44.198Z,96.2
2017-09-14T01:55:45.896Z,95.9
2017-09-14T01:56:47.597Z,96.2
2017-09-14T01:57:49.311Z,95.2
2017-09-14T01:58:51.139Z,95.1
2017-09-14T01:59:52.797Z,95.1
2017-09-14T02:00:54.564Z,95.2
2017-09-14T02:01:56.277Z,95.0
2017-09-14T02:02:58.046Z,95.4
2017-09-14T02:03:59.756Z,95.8
2017-09-14T02:05:01.465Z,95.8
2017-09-14T02:06:03.213Z,95.8
2017-09-14T02:07:05.384Z,96.2
2017-09-14T02:08:07.104Z,95.4
2017-09-14T02:09:09.025Z,96.1
2017-09-14T02:10:10.763Z,95.2
2017-09-14T02:11:12.491Z,95.4
2017-09-14T02:12:14.254Z,95.1
2017-09-14T02:13:15.970Z,95.6
2017-09-14T02:14:17.675Z,95.3
2017-09-14T02:15:19.369Z,95.0
2017-09-14T02:16:21.111Z,95.2
2017-09-14T02:17:23.590Z,95.2
2017-09-14T02:18:25.295Z,95.6
2017-09-14T02:19:27.002Z,95.9
2017-09-14T02:20:29.261Z,95.1
2017-09-14T02:21:30.975Z,95.2
2017-09-14T02:22:32.729Z,95.8
2017-09-14T02:23:34.660Z,95.5
2017-09-14T02:24:36.369Z,95.3
2017-09-14T02:25:38.136Z,95.6
2017-09-14T02:26:39.889Z,95.0
2017-09-14T02:27:41.594Z,95.2
2017-09-14T02:28:43.270Z,96.0
2017-09-14T02:29:44.991Z,95.3
2017-09-14T02:30:46.773Z,95.6
2017-09-14T02:31:49.190Z,96.0
2017-09-14T02:32:51.319Z,96.1
2017-09-14T02:33:53.054Z,95.1
2017-09-14T02:34:54.740Z,95.8
2017-09-14T02:35:56.458Z,95.1
2017-09-14T02:36:58.273Z,96.2
2017-09-14T02:38:00.028Z,96.4
2017-09-14T02:39:02.424Z,95.7
2017-09-14T02:40:04.127Z,95.6
2017-09-14T02:41:05.825Z,96.2
2017-09-14T02:42:07.536Z,95.8
2017-09-14T02:43:09.216Z,96.1
2017-09-14T02:44:10.993Z,96.1
2017-09-14T02:45:12.706Z,96.1
2017-09-14T02:46:14.430Z,96.7
2017-09-14T02:47:16.624Z,96.0
2017-09-14T02:48:18.293Z,95.9
2017-09-14T02:49:20.150Z,96.0
2017-09-14T02:50:21.840Z,95.8
2017-09-14T02:51:23.543Z,95.6
2017-09-14T02:52:25.207Z,95.1
2017-09-14T02:53:27.470Z,96.2
2017-09-14T02:54:29.172Z,96.2
2017-09-14T02:55:31.263Z,96.5
2017-09-14T02:56:33.294Z,96.5
2017-09-14T02:57:35.984Z,97.8
2017-09-14T02:58:37.726Z,97.3
2017-09-14T02:59:39.441Z,96.3
2017-09-14T03:00:41.122Z,96.3
2017-09-14T03:01:42.923Z,96.2
2017-09-14T03:02:45.030Z,96.4
2017-09-14T03:03:47.072Z,96.9
2017-09-14T03:04:49.204Z,96.8
2017-09-14T03:05:51.344Z,96.6
2017-09-14T03:06:53.043Z,96.7
2017-09-14T03:07:54.863Z,96.6
2017-09-14T03:08:56.569Z,96.6
2017-09-14T03:09:58.255Z,96.0
2017-09-14T03:11:00.058Z,96.3
2017-09-14T03:12:01.757Z,96.7
2017-09-14T03:13:03.521Z,96.5
2017-09-14T03:14:05.333Z,96.6
2017-09-14T03:15:07.088Z,96.4
2017-09-14T03:16:09.491Z,96.4
2017-09-14T03:17:11.196Z,96.5
2017-09-14T03:18:12.908Z,96.4
2017-09-14T03:19:14.700Z,96.7
2017-09-14T03:20:16.431Z,96.0
2017-09-14T03:21:18.126Z,96.0
2017-09-14T03:22:19.944Z,96.0
2017-09-14T03:23:21.638Z,96.9
2017-09-14T03:24:23.334Z,96.8
2017-09-14T03:25:25.046Z,96.0
2017-09-14T03:26:26.736Z,96.5
2017-09-14T03:27:28.446Z,96.4
2017-09-14T03:28:30.310Z,96.0
2017-09-14T03:29:32.063Z,97.5
2017-09-14T03:30:33.766Z,96.7
2017-09-14T03:31:35.757Z,96.7
2017-09-14T03:32:37.743Z,96.5
2017-09-14T03:33:39.519Z,96.2
2017-09-14T03:34:41.193Z,96.9
2017-09-14T03:35:42.896Z,96.5
2017-09-14T03:36:44.551Z,96.1
2017-09-14T03:37:46.787Z,96.1
2017-09-14T03:38:48.505Z,96.7
2017-09-14T03:39:50.202Z,96.8
2017-09-14T03:40:51.916Z,96.2
2017-09-14T03:41:53.670Z,96.3
2017-09-14T03:42:55.395Z,96.1
2017-09-14T03:43:57.369Z,96.5
2017-09-14T03:44:59.066Z,96.6
2017-09-14T03:46:00.771Z,96.5
2017-09-14T03:47:02.517Z,95.6
2017-09-14T03:48:04.180Z,96.2
2017-09-14T03:49:05.950Z,95.9
2017-09-14T03:50:07.661Z,96.0
2017-09-14T03:51:09.358Z,96.2
2017-09-14T03:52:11.196Z,96.4
2017-09-14T03:53:12.887Z,96.0
2017-09-14T03:54:14.603Z,96.3
2017-09-14T03:55:16.317Z,96.4
2017-09-14T03:56:18.151Z,96.0
2017-09-14T03:57:19.889Z,96.5
2017-09-14T03:58:21.599Z,96.9
2017-09-14T03:59:23.283Z,96.6
2017-09-14T04:00:24.958Z,95.7
2017-09-14T04:01:26.673Z,95.6
2017-09-14T04:02:28.471Z,96.5
2017-09-14T04:03:30.145Z,95.6
2017-09-14T04:04:31.849Z,95.8
2017-09-14T04:05:33.536Z,97.4
2017-09-14T04:06:35.227Z,96.2
2017-09-14T04:07:36.908Z,96.1
2017-09-14T04:08:38.693Z,96.5
2017-09-14T04:09:40.402Z,96.3
2017-09-14T04:10:42.049Z,96.6
2017-09-14T04:11:43.824Z,96.2
2017-09-14T04:12:45.522Z,96.6
2017-09-14T04:13:47.214Z,96.7
2017-09-14T04:14:48.895Z,96.0
2017-09-14T04:15:50.635Z,96.4
2017-09-14T04:16:52.449Z,96.8
2017-09-14T04:17:54.274Z,96.7
2017-09-14T04:18:55.949Z,96.8
2017-09-14T04:19:57.650Z,97.2
2017-09-14T04:20:59.358Z,96.4
2017-09-14T04:22:01.095Z,96.4
2017-09-14T04:23:02.761Z,96.5
2017-09-14T04:24:04.517Z,96.7
2017-09-14T04:25:06.178Z,97.6
2017-09-14T04:26:07.865Z,96.8
2017-09-14T04:27:09.540Z,96.5
2017-09-14T04:28:11.236Z,97.5
2017-09-14T04:29:13.013Z,97.1
2017-09-14T04:30:14.673Z,96.8
2017-09-14T04:31:16.572Z,96.8
2017-09-14T04:32:18.281Z,97.2
2017-09-14T04:33:19.929Z,97.5
2017-09-14T04:34:21.638Z,97.3
2017-09-14T04:35:23.334Z,97.3
2017-09-14T04:36:25.107Z,97.1
2017-09-14T04:37:26.858Z,97.2
2017-09-14T04:38:28.566Z,97.8
2017-09-14T04:39:30.243Z,97.7
2017-09-14T04:40:31.979Z,97.4
2017-09-14T04:41:33.719Z,96.8
2017-09-14T04:42:35.511Z,96.6
2017-09-14T04:43:39.560Z,97.6
2017-09-14T04:44:41.359Z,97.4
2017-09-14T04:45:43.079Z,97.9
2017-09-14T04:46:44.784Z,97.1
2017-09-14T04:47:46.466Z,97.2
2017-09-14T04:48:48.137Z,97.2
2017-09-14T04:49:49.862Z,96.6
2017-09-14T04:50:51.582Z,96.4
2017-09-14T04:51:53.322Z,96.6
2017-09-14T04:52:54.990Z,96.7
2017-09-14T04:53:56.975Z,97.1
2017-09-14T04:54:58.615Z,97.7
2017-09-14T04:56:00.294Z,97.5
2017-09-14T04:57:01.964Z,96.7
2017-09-14T04:58:03.635Z,96.6
2017-09-14T04:59:05.333Z,96.4
2017-09-14T05:00:07.011Z,97.0
2017-09-14T05:01:08.709Z,96.4
2017-09-14T05:02:10.379Z,96.5
2017-09-14T05:03:12.076Z,96.7
2017-09-14T05:04:13.747Z,96.5
2017-09-14T05:05:15.444Z,97.1
2017-09-14T05:06:17.138Z,96.8
2017-09-14T05:07:18.841Z,96.3
2017-09-14T05:08:20.543Z,97.6
2017-09-14T05:09:22.214Z,96.7
2017-09-14T05:10:23.941Z,96.6
2017-09-14T05:11:26.007Z,96.4
2017-09-14T05:12:28.083Z,96.4
2017-09-14T05:13:30.158Z,96.4
2017-09-14T05:14:31.838Z,97.1
2017-09-14T05:15:33.592Z,97.0
2017-09-14T05:16:35.263Z,97.2
2017-09-14T05:17:36.951Z,97.3
2017-09-14T05:18:38.633Z,97.0
2017-09-14T05:19:40.317Z,96.9
2017-09-14T05:20:42.015Z,97.3
2017-09-14T05:21:43.794Z,96.7
2017-09-14T05:22:45.471Z,97.3
2017-09-14T05:23:47.349Z,96.8
2017-09-14T05:24:49.063Z,96.4
2017-09-14T05:25:50.770Z,96.3
2017-09-14T05:26:52.488Z,96.7
2017-09-14T05:27:54.204Z,96.2
2017-09-14T05:28:55.876Z,97.1
2017-09-14T05:29:57.550Z,96.7
2017-09-14T05:30:59.253Z,96.5
2017-09-14T05:32:01.008Z,95.8
2017-09-14T05:33:02.768Z,95.8
2017-09-14T05:34:04.541Z,96.0
2017-09-14T05:35:06.237Z,97.0
2017-09-14T05:36:07.913Z,96.6
2017-09-14T05:37:09.640Z,96.4
2017-09-14T05:38:11.339Z,96.5
2017-09-14T05:39:13.036Z,96.6
2017-09-14T05:40:14.772Z,96.2
2017-09-14T05:41:16.475Z,96.0
2017-09-14T05:42:18.122Z,95.6
2017-09-14T05:43:19.804Z,95.6
2017-09-14T05:44:21.515Z,96.1
2017-09-14T05:45:23.191Z,95.4
2017-09-14T05:46:24.882Z,95.2
2017-09-14T05:47:26.779Z,95.3
2017-09-14T05:48:28.508Z,95.2
2017-09-14T05:49:30.258Z,95.3
2017-09-14T05:50:32.259Z,94.5
2017-09-14T05:51:34.207Z,95.2
2017-09-14T05:52:36.217Z,95.1
2017-09-14T05:53:38.576Z,95.3
2017-09-14T05:54:40.944Z,95.4
2017-09-14T05:55:42.874Z,95.0
2017-09-14T05:56:44.795Z,95.2
2017-09-14T05:57:46.817Z,95.1
2017-09-14T05:58:48.793Z,95.2
2017-09-14T05:59:50.824Z,95.9
2017-09-14T06:00:52.505Z,94.3
2017-09-14T06:01:54.194Z,95.2
2017-09-14T06:02:55.878Z,95.0
2017-09-14T06:03:57.581Z,95.3
2017-09-14T06:04:59.309Z,95.6
2017-09-14T06:06:00.989Z,95.2
2017-09-14T06:07:02.707Z,95.2
2017-09-14T06:08:04.382Z,95.2
2017-09-14T06:09:06.202Z,95.4
2017-09-14T06:10:08.123Z,95.2
2017-09-14T06:11:09.978Z,95.0
2017-09-14T06:12:11.624Z,95.2
2017-09-14T06:13:13.421Z,95.0
2017-09-14T06:14:15.146Z,94.8
2017-09-14T06:15:16.865Z,95.1
2017-09-14T06:16:18.555Z,95.3
2017-09-14T06:17:20.261Z,95.0
2017-09-14T06:18:21.945Z,95.1
2017-09-14T06:19:23.670Z,96.0
2017-09-14T06:20:25.418Z,95.3
2017-09-14T06:21:27.132Z,95.2
2017-09-14T06:22:28.865Z,95.9
2017-09-14T06:23:30.593Z,96.0
2017-09-14T06:24:32.301Z,96.0
2017-09-14T06:25:33.991Z,95.0
2017-09-14T06:26:35.708Z,96.0
2017-09-14T06:27:37.402Z,96.1
2017-09-14T06:28:39.156Z,96.3
2017-09-14T06:29:41.046Z,95.0
2017-09-14T06:30:43.071Z,95.2
2017-09-14T06:31:44.855Z,95.3
2017-09-14T06:32:46.566Z,95.0
2017-09-14T06:33:48.299Z,96.5
2017-09-14T06:34:50.034Z,96.7
2017-09-14T06:35:51.706Z,96.0
2017-09-14T06:36:53.514Z,95.8
2017-09-14T06:37:55.270Z,95.5
2017-09-14T06:38:57.051Z,94.9
2017-09-14T06:39:58.873Z,96.2
2017-09-14T06:41:00.862Z,96.2
2017-09-14T06:42:02.974Z,96.0
2017-09-14T06:43:04.706Z,96.0
2017-09-14T06:44:06.420Z,96.1
2017-09-14T06:45:08.190Z,96.0
2017-09-14T06:46:09.918Z,96.0
2017-09-14T06:47:11.681Z,96.1
2017-09-14T06:48:13.660Z,95.9
2017-09-14T06:49:15.444Z,96.0
2017-09-14T06:50:17.209Z,95.1
2017-09-14T06:51:18.971Z,95.2
2017-09-14T06:52:20.870Z,94.6
2017-09-14T06:53:22.697Z,93.7
2017-09-14T06:54:24.444Z,93.9
2017-09-14T06:55:26.177Z,92.7
2017-09-14T06:56:27.921Z,91.6
2017-09-14T06:57:29.732Z,91.9
2017-09-14T06:58:31.489Z,91.8
2017-09-14T06:59:33.220Z,91.7
2017-09-14T07:00:34.960Z,91.1
2017-09-14T07:01:36.709Z,91.6
2017-09-14T07:02:38.415Z,91.8
2017-09-14T07:03:40.153Z,90.3
2017-09-14T07:04:41.952Z,91.2
2017-09-14T07:05:43.739Z,90.6
2017-09-14T07:06:45.541Z,90.4
2017-09-14T07:07:47.285Z,89.9
2017-09-14T07:08:49.006Z,89.3
2017-09-14T07:09:50.793Z,89.4
2017-09-14T07:10:52.513Z,88.8
2017-09-14T07:11:54.466Z,88.3
2017-09-14T07:12:56.273Z,87.5
2017-09-14T07:13:58.034Z,87.8
2017-09-14T07:14:59.803Z,88.4
2017-09-14T07:16:01.515Z,88.0
2017-09-14T07:17:18.481Z,87.2
2017-09-14T07:18:20.481Z,87.4
2017-09-14T07:19:22.191Z,87.0
2017-09-14T07:20:23.850Z,87.7
2017-09-14T07:21:25.544Z,88.1
2017-09-14T07:22:27.250Z,87.6
2017-09-14T07:23:28.993Z,87.2
2017-09-14T07:24:31.077Z,88.0
2017-09-14T07:25:32.776Z,88.8
2017-09-14T07:26:34.449Z,89.1
2017-09-14T07:27:36.156Z,87.9
2017-09-14T07:28:37.821Z,88.1
2017-09-14T07:29:39.461Z,87.9
2017-09-14T07:30:41.109Z,88.6
2017-09-14T07:31:42.814Z,88.6
2017-09-14T07:32:44.523Z,89.0
2017-09-14T07:33:46.247Z,88.6
2017-09-14T07:34:47.944Z,89.0
2017-09-14T07:35:49.612Z,89.0
2017-09-14T07:36:51.316Z,88.7
2017-09-14T07:37:52.988Z,90.3
2017-09-14T07:38:54.637Z,90.2
2017-09-14T07:39:56.312Z,90.8
2017-09-14T07:40:58.009Z,90.9
2017-09-14T07:41:59.744Z,91.3
2017-09-14T07:43:01.481Z,91.4
2017-09-14T07:44:03.171Z,91.7
2017-09-14T07:45:05.159Z,91.3
2017-09-14T07:46:06.834Z,91.7
2017-09-14T07:47:08.518Z,92.2
2017-09-14T07:48:10.212Z,92.1
2017-09-14T07:49:11.931Z,92.0
2017-09-14T07:50:13.607Z,91.6
2017-09-14T07:51:15.285Z,92.0
2017-09-14T07:52:16.967Z,91.7
2017-09-14T07:53:18.718Z,92.3
2017-09-14T07:54:20.373Z,91.9
2017-09-14T07:55:22.067Z,92.4
2017-09-14T07:56:23.749Z,91.5
2017-09-14T07:57:25.541Z,91.5
2017-09-14T07:58:27.425Z,91.5
2017-09-14T07:59:29.127Z,92.3
2017-09-14T08:00:30.804Z,91.8
2017-09-14T08:01:32.470Z,92.9
2017-09-14T08:02:34.188Z,91.9
2017-09-14T08:03:35.890Z,91.8
2017-09-14T08:04:37.643Z,91.7
2017-09-14T08:05:39.307Z,91.8
2017-09-14T08:06:40.984Z,91.0
2017-09-14T08:07:42.698Z,91.4
2017-09-14T08:08:44.415Z,91.9
2017-09-14T08:09:46.080Z,91.1
2017-09-14T08:10:47.743Z,90.9
2017-09-14T08:11:49.370Z,91.5
2017-09-14T08:12:51.052Z,91.8
2017-09-14T08:13:52.738Z,91.3
2017-09-14T08:14:54.402Z,91.1
2017-09-14T08:15:56.091Z,89.7
2017-09-14T08:16:57.773Z,89.7
2017-09-14T08:17:59.464Z,89.7
2017-09-14T08:19:01.152Z,90.4
2017-09-14T08:20:02.943Z,90.3
2017-09-14T08:21:04.625Z,90.3
2017-09-14T08:22:06.303Z,89.7
2017-09-14T08:23:07.979Z,88.7
2017-09-14T08:24:09.786Z,87.3
2017-09-14T08:25:11.477Z,88.1
2017-09-14T08:26:13.177Z,89.1
2017-09-14T08:27:14.939Z,88.8
2017-09-14T08:28:16.604Z,88.1
2017-09-14T08:29:18.307Z,88.5
2017-09-14T08:30:19.977Z,89.5
2017-09-14T08:31:21.654Z,88.3
2017-09-14T08:32:23.313Z,88.0
2017-09-14T08:33:24.973Z,88.4
2017-09-14T08:34:26.626Z,88.3
2017-09-14T08:35:28.295Z,88.2
2017-09-14T08:36:29.991Z,87.6
2017-09-14T08:37:31.670Z,87.5
2017-09-14T08:38:33.317Z,87.8
2017-09-14T08:39:35.002Z,88.0
2017-09-14T08:40:36.687Z,85.9
2017-09-14T08:41:38.392Z,86.1
2017-09-14T08:42:40.043Z,86.5
2017-09-14T08:43:41.684Z,85.7
2017-09-14T08:44:43.341Z,84.6
2017-09-14T08:45:45.053Z,85.2
2017-09-14T08:46:46.745Z,83.7
2017-09-14T08:47:48.393Z,84.3
2017-09-14T08:48:50.052Z,84.2
2017-09-14T08:49:51.837Z,85.4
2017-09-14T08:50:53.514Z,85.2
2017-09-14T08:51:55.236Z,85.2
2017-09-14T08:52:56.897Z,84.9
2017-09-14T08:53:58.565Z,87.2
2017-09-14T08:55:00.223Z,87.7
2017-09-14T08:56:01.896Z,89.1
2017-09-14T08:57:03.620Z,88.9
2017-09-14T08:58:05.280Z,89.2
2017-09-14T08:59:06.969Z,89.3
2017-09-14T09:00:08.692Z,88.9
2017-09-14T09:01:10.339Z,89.6
2017-09-14T09:02:12.083Z,90.4
2017-09-14T09:03:13.752Z,90.6
2017-09-14T09:04:15.450Z,88.8
2017-09-14T09:05:17.118Z,87.4
2017-09-14T09:06:18.867Z,86.6
2017-09-14T09:07:20.591Z,87.0
2017-09-14T09:08:22.247Z,87.0
2017-09-14T09:09:24.207Z,86.6
2017-09-14T09:10:25.876Z,86.7
2017-09-14T09:11:27.537Z,86.8
2017-09-14T09:12:29.191Z,86.5
2017-09-14T09:13:30.867Z,86.5
2017-09-14T09:14:32.565Z,84.7
2017-09-14T09:15:34.268Z,86.2
2017-09-14T09:16:35.926Z,84.6
2017-09-14T09:17:37.612Z,83.8
2017-09-14T09:18:39.271Z,82.3
2017-09-14T09:19:40.925Z,81.2
2017-09-14T09:20:42.603Z,79.7
2017-09-14T09:21:44.282Z,79.1
2017-09-14T09:22:45.983Z,79.0
2017-09-14T09:23:47.641Z,77.8
2017-09-14T09:24:49.338Z,79.1
2017-09-14T09:25:50.981Z,78.5
2017-09-14T09:26:52.739Z,79.3
2017-09-14T09:27:54.412Z,77.8
2017-09-14T09:28:56.190Z,78.5
2017-09-14T09:29:58.202Z,79.2
2017-09-14T09:30:59.904Z,79.0
2017-09-14T09:32:01.593Z,78.8
2017-09-14T09:33:03.258Z,79.8
2017-09-14T09:34:04.906Z,79.4
2017-09-14T09:35:06.560Z,79.6
2017-09-14T09:36:08.240Z,79.4
2017-09-14T09:37:09.918Z,79.2
2017-09-14T09:38:11.589Z,79.1
2017-09-14T09:39:13.295Z,79.4
2017-09-14T09:40:15.009Z,80.5
2017-09-14T09:41:17.687Z,78.4
2017-09-14T09:42:19.427Z,79.8
2017-09-14T09:43:21.119Z,79.9
2017-09-14T09:44:22.796Z,79.8
2017-09-14T09:45:24.553Z,80.6
2017-09-14T09:46:26.221Z,79.8
2017-09-14T09:47:27.899Z,79.5
2017-09-14T09:48:29.591Z,80.4
2017-09-14T09:49:31.247Z,81.0
2017-09-14T09:50:32.892Z,81.3
2017-09-14T09:51:34.570Z,81.8
2017-09-14T09:52:36.389Z,82.2
2017-09-14T09:53:38.035Z,82.8
2017-09-14T09:54:39.770Z,82.0
2017-09-14T09:55:42.512Z,81.2
2017-09-14T09:56:44.660Z,80.9
2017-09-14T09:57:46.330Z,81.0
2017-09-14T09:58:48.022Z,79.8
2017-09-14T09:59:49.702Z,79.5
2017-09-14T10:00:51.510Z,79.9
2017-09-14T10:01:53.169Z,80.3
2017-09-14T10:02:54.818Z,80.5
2017-09-14T10:03:56.486Z,80.3
2017-09-14T10:04:58.180Z,81.0
2017-09-14T10:06:00.114Z,80.4
2017-09-14T10:07:01.793Z,81.6
2017-09-14T10:08:03.450Z,81.8
2017-09-14T10:09:05.235Z,82.2
2017-09-14T10:10:07.030Z,82.5
2017-09-14T10:11:08.738Z,83.2
2017-09-14T10:12:10.507Z,82.8
2017-09-14T10:13:12.217Z,82.8
2017-09-14T10:14:13.891Z,82.9
2017-09-14T10:15:15.559Z,82.8
2017-09-14T10:16:17.278Z,83.2
2017-09-14T10:17:18.993Z,83.2
2017-09-14T10:18:20.660Z,83.4
2017-09-14T10:19:22.334Z,83.2
2017-09-14T10:20:24.163Z,83.8
2017-09-14T10:21:25.967Z,83.8
2017-09-14T10:22:27.702Z,83.7
2017-09-14T10:23:29.444Z,83.6
2017-09-14T10:24:31.084Z,82.2
2017-09-14T10:25:32.781Z,82.0
2017-09-14T10:26:34.499Z,82.3
2017-09-14T10:27:36.198Z,83.2
2017-09-14T10:28:37.869Z,81.3
2017-09-14T10:29:39.528Z,82.2
2017-09-14T10:30:41.303Z,81.2
2017-09-14T10:31:43.047Z,79.8
2017-09-14T10:32:44.680Z,78.5
2017-09-14T10:33:46.355Z,75.6
2017-09-14T10:34:48.024Z,75.6
2017-09-14T10:35:49.732Z,74.4
2017-09-14T10:36:51.406Z,75.1
2017-09-14T10:37:53.097Z,75.1
2017-09-14T10:38:54.777Z,72.9
2017-09-14T10:39:56.493Z,72.7
2017-09-14T10:40:58.241Z,73.5
2017-09-14T10:41:59.933Z,74.1
2017-09-14T10:43:01.613Z,73.8
2017-09-14T10:44:03.353Z,74.5
2017-09-14T10:45:05.015Z,75.2
2017-09-14T10:46:06.714Z,76.2
2017-09-14T10:47:08.483Z,76.9
2017-09-14T10:48:10.790Z,76.9
2017-09-14T10:49:12.900Z,76.1
2017-09-14T10:50:14.926Z,75.6
2017-09-14T10:51:17.105Z,74.6
2017-09-14T10:52:19.349Z,74.6
2017-09-14T10:53:21.451Z,75.4
2017-09-14T10:54:23.329Z,76.0
2017-09-14T10:55:24.969Z,75.7
2017-09-14T10:56:26.653Z,76.3
2017-09-14T10:57:28.404Z,77.8
2017-09-14T10:58:30.191Z,77.1
2017-09-14T10:59:31.973Z,77.5
2017-09-14T11:00:33.661Z,77.2
2017-09-14T11:01:35.353Z,77.8
2017-09-14T11:02:37.159Z,78.0
2017-09-14T11:03:39.064Z,72.1
2017-09-14T11:04:40.738Z,68.6
2017-09-14T11:05:42.517Z,66.4
2017-09-14T11:06:44.224Z,66.2
2017-09-14T11:07:45.877Z,66.0
2017-09-14T11:08:47.586Z,65.1
2017-09-14T11:09:49.271Z,66.4
2017-09-14T11:10:50.973Z,65.2
2017-09-14T11:11:52.657Z,64.6
2017-09-14T11:12:54.331Z,63.9
2017-09-14T11:13:56.087Z,64.4
2017-09-14T11:14:57.774Z,64.0
2017-09-14T11:15:59.504Z,63.3
2017-09-14T11:17:01.154Z,63.3
2017-09-14T11:18:02.864Z,62.8
2017-09-14T11:19:04.508Z,64.3
2017-09-14T11:20:06.220Z,67.6
2017-09-14T11:21:07.895Z,65.1
2017-09-14T11:22:09.581Z,63.8
2017-09-14T11:23:11.267Z,66.0
2017-09-14T11:24:12.994Z,68.4
2017-09-14T11:25:14.697Z,68.0
2017-09-14T11:26:16.418Z,70.3
2017-09-14T11:27:18.091Z,68.6
2017-09-14T11:28:19.784Z,70.1
2017-09-14T11:29:21.453Z,68.2
2017-09-14T11:30:23.113Z,68.6
2017-09-14T11:31:24.759Z,70.3
2017-09-14T11:32:26.451Z,71.4
2017-09-14T11:33:28.152Z,71.5
2017-09-14T11:34:29.986Z,72.7
2017-09-14T11:35:31.624Z,72.5
2017-09-14T11:36:33.280Z,70.6
2017-09-14T11:37:34.946Z,70.3
2017-09-14T11:38:36.619Z,69.7
2017-09-14T11:39:38.292Z,63.8
2017-09-14T11:40:40.065Z,63.9
2017-09-14T11:41:41.740Z,64.7
2017-09-14T11:42:43.372Z,64.4
2017-09-14T11:43:45.221Z,65.2
2017-09-14T11:44:46.888Z,65.4
2017-09-14T11:45:48.619Z,67.2
2017-09-14T11:46:50.296Z,67.8
2017-09-14T11:47:51.986Z,69.6
2017-09-14T11:48:53.656Z,70.7
2017-09-14T11:49:55.318Z,70.4
2017-09-14T11:50:56.995Z,72.5
2017-09-14T11:51:58.652Z,76.6
2017-09-14T11:53:00.334Z,78.8
2017-09-14T11:54:02.158Z,82.4
2017-09-14T11:55:03.811Z,78.5
2017-09-14T11:56:05.561Z,78.0
2017-09-14T11:57:07.208Z,80.0
2017-09-14T11:58:09.662Z,78.5
2017-09-14T11:59:11.307Z,79.8
2017-09-14T12:00:13.231Z,78.8
2017-09-14T12:01:14.974Z,77.2
2017-09-14T12:02:16.805Z,76.5
2017-09-14T12:03:18.643Z,76.5
2017-09-14T12:04:20.331Z,76.6
2017-09-14T12:05:22.040Z,75.6
2017-09-14T12:06:23.859Z,74.4
2017-09-14T12:07:25.521Z,76.8
2017-09-14T12:08:27.178Z,79.3
2017-09-14T12:09:28.822Z,83.8
2017-09-14T12:10:30.535Z,87.4
2017-09-14T12:11:32.324Z,91.4
2017-09-14T12:12:33.996Z,96.3
2017-09-14T12:13:35.730Z,95.2
2017-09-14T12:14:37.506Z,96.2
2017-09-14T12:15:39.154Z,96.4
2017-09-14T12:16:40.797Z,96.8
2017-09-14T12:17:42.495Z,96.8
2017-09-14T12:18:44.126Z,97.8
2017-09-14T12:19:45.753Z,96.6
2017-09-14T12:20:49.007Z,97.8
2017-09-14T12:21:50.656Z,97.2
2017-09-14T12:22:52.404Z,93.5
2017-09-14T12:23:54.076Z,95.9
2017-09-14T12:24:55.811Z,97.3
2017-09-14T12:25:57.448Z,96.8
2017-09-14T12:26:59.214Z,98.4
2017-09-14T12:28:00.989Z,98.7
2017-09-14T12:29:02.837Z,100.0
2017-09-14T12:30:04.661Z,98.1
2017-09-14T12:31:06.455Z,99.8
2017-09-14T12:32:08.768Z,100.0
2017-09-14T12:33:10.585Z,100.0
2017-09-14T12:34:12.514Z,100.0
2017-09-14T12:35:14.284Z,100.0
2017-09-14T12:36:16.067Z,100.0
2017-09-14T12:37:18.624Z,100.0
2017-09-14T12:38:20.708Z,100.0
2017-09-14T12:39:23.916Z,100.0
2017-09-14T12:40:26.210Z,97.5
2017-09-14T12:41:28.430Z,89.4
2017-09-14T12:42:30.602Z,84.1
2017-09-14T12:43:32.877Z,80.2
2017-09-14T12:44:35.135Z,78.5
2017-09-14T12:45:37.728Z,74.6
2017-09-14T12:46:39.880Z,70.1
2017-09-14T12:47:41.930Z,70.8
2017-09-14T12:48:43.901Z,72.3
2017-09-14T12:49:45.910Z,73.3
2017-09-14T12:50:47.656Z,75.7
2017-09-14T12:51:49.884Z,74.2
2017-09-14T12:52:51.958Z,69.8
2017-09-14T12:53:53.696Z,67.5
2017-09-14T12:54:55.466Z,66.9
2017-09-14T12:55:57.498Z,66.9
2017-09-14T12:56:59.850Z,68.4
2017-09-14T12:58:03.384Z,64.7
2017-09-14T12:59:06.053Z,64.3
2017-09-14T13:00:08.399Z,64.5
2017-09-14T13:01:10.721Z,64.8
2017-09-14T13:02:13.226Z,65.7
2017-09-14T13:03:15.217Z,65.9
2017-09-14T13:04:16.944Z,64.4
2017-09-14T13:05:19.041Z,64.2
2017-09-14T13:06:22.372Z,64.9
2017-09-14T13:07:24.857Z,67.4
2017-09-14T13:08:27.360Z,71.4
2017-09-14T13:09:29.481Z,77.6
2017-09-14T13:10:34.378Z,79.9
2017-09-14T13:11:36.354Z,82.5
2017-09-14T13:12:39.066Z,83.7
2017-09-14T13:13:43.469Z,85.9
2017-09-14T13:14:45.711Z,86.6
2017-09-14T13:15:47.793Z,87.4
2017-09-14T13:16:49.952Z,86.8
2017-09-14T13:17:52.121Z,86.6
2017-09-14T13:18:56.790Z,85.6
2017-09-14T13:19:59.076Z,86.1
2017-09-14T13:21:01.222Z,85.8
2017-09-14T13:22:03.289Z,86.6
2017-09-14T13:23:06.904Z,84.8
2017-09-14T13:24:10.324Z,85.6
2017-09-14T13:25:12.368Z,87.3
2017-09-14T13:26:14.510Z,86.9
2017-09-14T13:27:16.617Z,87.2
2017-09-14T13:28:19.241Z,87.9
2017-09-14T13:29:22.737Z,87.8
2017-09-14T13:30:26.480Z,90.5
2017-09-14T13:31:28.877Z,87.0
2017-09-14T13:32:31.005Z,84.3
2017-09-14T13:33:34.589Z,83.8
2017-09-14T13:34:36.651Z,83.1
2017-09-14T13:35:39.787Z,81.5
2017-09-14T13:36:42.810Z,81.6
2017-09-14T13:37:45.316Z,81.9
2017-09-14T13:38:47.353Z,79.7
2017-09-14T13:39:49.485Z,81.2
2017-09-14T13:40:51.971Z,81.5
2017-09-14T13:41:54.151Z,82.5
2017-09-14T13:42:57.939Z,83.2